Terminal Aerodrome Forecast
Issued by NWS Charleston, SC

Home | Current Version | Previous Version | Text Only | Print | Product List | Glossary On
Versions: 1 2 3 4 5 6 7 8 9 10 11 12 13 14 15 16
000
FTUS42 KCHS 282050 AAB
TAFCHS
TAF AMD
KCHS 282050Z 2821/2918 03011KT 3SM RA FEW025 BKN035
     FM290100 03010KT 5SM SHRA SCT010 BKN025
     FM290600 03012G18KT 5SM SHRA SCT008 OVC015
     FM291200 04014G20KT 6SM -RA SCT010 OVC020=

USA.gov is the U.S. government's official web portal to all federal, state and local government web resources and services.